createdAt,value
2018-11-07T00:01:07.635Z,4.44
2018-11-07T00:03:36.791Z,4.46
2018-11-07T00:06:05.896Z,4.49
2018-11-07T00:08:35.246Z,4.51
2018-11-07T00:11:04.288Z,4.51
2018-11-07T00:13:33.214Z,4.56
2018-11-07T00:16:02.091Z,4.58
2018-11-07T00:18:30.992Z,4.54
2018-11-07T00:20:59.885Z,4.51
2018-11-07T00:23:28.796Z,4.52
2018-11-07T00:25:57.698Z,4.53
2018-11-07T00:28:26.508Z,4.52
2018-11-07T00:30:55.635Z,4.50
2018-11-07T00:33:24.309Z,4.53
2018-11-07T00:35:53.189Z,4.50
2018-11-07T00:38:22.409Z,4.52
2018-11-07T00:40:51.411Z,4.56
2018-11-07T00:43:20.211Z,4.55
2018-11-07T00:45:49.212Z,4.54
2018-11-07T00:48:18.176Z,4.55
2018-11-07T00:50:46.951Z,4.53
2018-11-07T00:53:15.911Z,4.49
2018-11-07T00:55:44.957Z,4.45
2018-11-07T00:58:13.865Z,4.48
2018-11-07T01:00:42.814Z,4.36
2018-11-07T01:03:11.702Z,4.36
2018-11-07T01:05:40.524Z,4.36
2018-11-07T01:08:09.345Z,4.38
2018-11-07T01:10:39.667Z,4.40
2018-11-07T01:13:08.436Z,4.42
2018-11-07T01:15:37.591Z,4.44
2018-11-07T01:18:06.724Z,4.45
2018-11-07T01:20:35.524Z,4.42
2018-11-07T01:23:04.358Z,4.40
2018-11-07T01:25:33.306Z,4.36
2018-11-07T01:28:02.307Z,4.36
2018-11-07T01:30:31.288Z,4.35
2018-11-07T01:33:00.073Z,4.37
2018-11-07T01:35:29.186Z,4.35
2018-11-07T01:37:58.692Z,4.36
2018-11-07T01:40:28.323Z,4.29
2018-11-07T01:42:57.817Z,4.26
2018-11-07T01:45:27.015Z,4.22
2018-11-07T01:47:56.073Z,4.24
2018-11-07T01:50:25.027Z,4.20
2018-11-07T01:52:53.892Z,4.20
2018-11-07T01:55:22.762Z,4.07
2018-11-07T01:57:51.623Z,4.07
2018-11-07T02:00:20.653Z,4.08
2018-11-07T02:02:49.661Z,4.11
2018-11-07T02:05:18.907Z,4.08
2018-11-07T02:07:48.312Z,4.07
2018-11-07T02:10:17.442Z,4.10
2018-11-07T02:12:46.609Z,4.13
2018-11-07T02:15:15.691Z,4.10
2018-11-07T02:17:44.567Z,4.11
2018-11-07T02:20:13.533Z,4.14
2018-11-07T02:22:42.744Z,4.17
2018-11-07T02:25:11.443Z,4.21
2018-11-07T02:27:40.865Z,4.24
2018-11-07T02:30:14.821Z,4.21
2018-11-07T02:32:44.183Z,4.16
2018-11-07T02:35:13.109Z,4.19
2018-11-07T02:37:42.152Z,4.19
2018-11-07T02:40:11.101Z,4.17
2018-11-07T02:42:39.948Z,4.11
2018-11-07T02:45:08.939Z,4.08
2018-11-07T02:47:38.062Z,4.09
2018-11-07T02:50:08.108Z,4.13
2018-11-07T02:52:36.823Z,4.05
2018-11-07T02:55:06.043Z,4.16
2018-11-07T02:57:35.064Z,4.18
2018-11-07T03:00:03.895Z,4.16
2018-11-07T03:02:32.803Z,4.09
2018-11-07T03:05:01.694Z,4.13
2018-11-07T03:07:30.400Z,4.12
2018-11-07T03:09:59.281Z,4.12
2018-11-07T03:12:28.204Z,4.14
2018-11-07T03:14:57.218Z,4.14
2018-11-07T03:17:26.425Z,4.14
2018-11-07T03:19:55.529Z,4.14
2018-11-07T03:22:24.629Z,4.16
2018-11-07T03:24:53.643Z,4.20
2018-11-07T03:27:22.786Z,4.22
2018-11-07T03:29:51.826Z,4.23
2018-11-07T03:32:20.718Z,4.17
2018-11-07T03:34:49.507Z,4.07
2018-11-07T03:37:18.456Z,4.08
2018-11-07T03:39:47.775Z,3.93
2018-11-07T03:42:16.869Z,3.85
2018-11-07T03:44:46.005Z,3.90
2018-11-07T03:47:14.924Z,3.95
2018-11-07T03:49:44.132Z,3.99
2018-11-07T03:52:13.073Z,4.05
2018-11-07T03:54:41.985Z,4.07
2018-11-07T03:57:10.933Z,4.12
2018-11-07T03:59:39.825Z,4.15
2018-11-07T04:02:09.612Z,4.15
2018-11-07T04:04:38.840Z,4.20
2018-11-07T04:07:08.220Z,4.24
2018-11-07T04:09:37.324Z,4.27
2018-11-07T04:12:06.345Z,3.46
2018-11-07T04:14:35.366Z,4.32
2018-11-07T04:17:04.176Z,4.28
2018-11-07T04:19:33.052Z,4.19
2018-11-07T04:22:01.891Z,4.19
2018-11-07T04:24:30.756Z,4.22
2018-11-07T04:26:59.692Z,4.26
2018-11-07T04:29:28.541Z,4.23
2018-11-07T04:31:57.481Z,4.19
2018-11-07T04:34:26.276Z,4.20
2018-11-07T04:36:55.475Z,4.21
2018-11-07T04:39:24.275Z,4.23
2018-11-07T04:41:53.095Z,4.21
2018-11-07T04:44:21.887Z,4.21
2018-11-07T04:46:50.918Z,4.18
2018-11-07T04:49:19.992Z,4.19
2018-11-07T04:51:48.856Z,4.18
2018-11-07T04:54:17.729Z,4.17
2018-11-07T04:56:46.824Z,4.12
2018-11-07T04:59:15.789Z,4.10
2018-11-07T05:01:44.589Z,3.33
2018-11-07T05:04:13.465Z,4.14
2018-11-07T05:06:42.448Z,4.15
2018-11-07T05:09:11.372Z,4.14
2018-11-07T05:11:40.385Z,4.09
2018-11-07T05:14:09.541Z,4.03
2018-11-07T05:16:38.264Z,4.07
2018-11-07T05:19:07.323Z,4.12
2018-11-07T05:21:36.444Z,4.12
2018-11-07T05:24:06.050Z,4.10
2018-11-07T05:26:34.997Z,4.12
2018-11-07T05:29:04.033Z,4.09
2018-11-07T05:31:33.140Z,4.10
2018-11-07T05:34:02.005Z,4.15
2018-11-07T05:36:30.924Z,4.16
2018-11-07T05:38:59.681Z,4.15
2018-11-07T05:41:28.565Z,4.17
2018-11-07T05:43:57.520Z,4.14
2018-11-07T05:46:26.667Z,4.12
2018-11-07T05:48:55.883Z,4.13
2018-11-07T05:51:24.847Z,4.17
2018-11-07T05:53:53.931Z,4.20
2018-11-07T05:56:22.994Z,4.21
2018-11-07T05:58:52.034Z,4.25
2018-11-07T06:01:21.001Z,4.23
2018-11-07T06:03:50.027Z,4.25
2018-11-07T06:06:19.078Z,4.27
2018-11-07T06:08:48.078Z,4.30
2018-11-07T06:11:16.962Z,4.30
2018-11-07T06:13:46.008Z,4.29
2018-11-07T06:16:15.073Z,4.29
2018-11-07T06:18:44.045Z,4.28
2018-11-07T06:21:12.948Z,4.22
2018-11-07T06:23:41.794Z,4.20
2018-11-07T06:26:10.719Z,4.21
2018-11-07T06:28:39.585Z,4.27
2018-11-07T06:31:08.277Z,4.29
2018-11-07T06:33:37.219Z,4.32
2018-11-07T06:36:06.666Z,4.31
2018-11-07T06:38:35.378Z,4.35
2018-11-07T06:41:04.367Z,4.38
2018-11-07T06:43:33.480Z,4.38
2018-11-07T06:46:03.378Z,4.41
2018-11-07T06:48:32.613Z,4.43
2018-11-07T06:51:01.490Z,4.43
2018-11-07T06:53:30.334Z,4.46
2018-11-07T06:55:59.143Z,4.46
2018-11-07T06:58:27.915Z,4.46
2018-11-07T07:00:56.896Z,4.46
2018-11-07T07:03:25.634Z,4.48
2018-11-07T07:05:54.514Z,4.48
2018-11-07T07:08:23.350Z,4.48
2018-11-07T07:10:52.211Z,4.48
2018-11-07T07:13:21.312Z,4.41
2018-11-07T07:15:50.418Z,4.40
2018-11-07T07:18:19.049Z,4.42
2018-11-07T07:20:47.998Z,4.43
2018-11-07T07:23:16.846Z,4.44
2018-11-07T07:25:46.104Z,4.47
2018-11-07T07:28:15.018Z,4.45
2018-11-07T07:30:44.120Z,4.47
2018-11-07T07:33:13.290Z,4.47
2018-11-07T07:35:42.721Z,4.49
2018-11-07T07:38:11.926Z,4.49
2018-11-07T07:40:41.228Z,4.49
2018-11-07T07:43:10.292Z,4.52
2018-11-07T07:45:39.533Z,4.51
2018-11-07T07:48:08.513Z,4.46
2018-11-07T07:50:37.544Z,4.40
2018-11-07T07:53:06.892Z,4.42
2018-11-07T07:55:35.977Z,4.46
2018-11-07T07:58:06.166Z,4.41
2018-11-07T08:00:35.264Z,4.42
2018-11-07T08:03:04.558Z,4.44
2018-11-07T08:05:33.399Z,4.45
2018-11-07T08:08:02.561Z,4.45
2018-11-07T08:10:31.721Z,4.43
2018-11-07T08:13:00.916Z,4.45
2018-11-07T08:15:29.979Z,4.45
2018-11-07T08:17:59.046Z,4.46
2018-11-07T08:20:28.257Z,4.45
2018-11-07T08:22:57.390Z,4.49
2018-11-07T08:25:26.261Z,4.48
2018-11-07T08:27:55.230Z,4.52
2018-11-07T08:30:24.281Z,4.52
2018-11-07T08:32:53.005Z,4.49
2018-11-07T08:35:21.750Z,4.47
2018-11-07T08:37:50.635Z,4.46
2018-11-07T08:40:21.765Z,4.43
2018-11-07T08:42:51.024Z,4.43
2018-11-07T08:45:19.977Z,4.41
2018-11-07T08:47:49.075Z,4.42
2018-11-07T08:50:20.048Z,4.46
2018-11-07T08:52:49.462Z,4.48
2018-11-07T08:55:20.580Z,4.51
2018-11-07T08:57:49.509Z,4.48
2018-11-07T09:00:20.605Z,4.44
2018-11-07T09:02:49.681Z,4.45
2018-11-07T09:05:19.424Z,4.51
2018-11-07T09:07:48.917Z,4.55
2018-11-07T09:10:19.094Z,4.53
2018-11-07T09:12:48.060Z,3.41
2018-11-07T09:15:18.315Z,4.49
2018-11-07T09:17:47.326Z,4.50
2018-11-07T09:20:21.205Z,4.49
2018-11-07T09:22:50.031Z,3.74
2018-11-07T09:25:19.225Z,4.55
2018-11-07T09:27:48.904Z,4.57
2018-11-07T09:30:19.363Z,4.58
2018-11-07T09:32:48.536Z,4.59
2018-11-07T09:35:17.629Z,4.63
2018-11-07T09:37:46.917Z,4.67
2018-11-07T09:40:18.347Z,4.70
2018-11-07T09:42:48.017Z,4.73
2018-11-07T09:45:18.278Z,4.74
2018-11-07T09:47:47.911Z,4.74
2018-11-07T09:50:17.516Z,4.76
2018-11-07T09:52:46.675Z,4.78
2018-11-07T09:55:17.226Z,4.78
2018-11-07T09:57:46.265Z,4.78
2018-11-07T10:00:17.336Z,4.75
2018-11-07T10:02:46.495Z,4.72
2018-11-07T10:05:16.437Z,4.70
2018-11-07T10:07:45.225Z,4.71
2018-11-07T10:10:16.383Z,4.73
2018-11-07T10:12:45.792Z,4.76
2018-11-07T10:15:15.068Z,4.79
2018-11-07T10:17:43.926Z,4.81
2018-11-07T10:20:16.246Z,4.78
2018-11-07T10:22:45.849Z,4.78
2018-11-07T10:25:15.315Z,4.80
2018-11-07T10:27:44.566Z,4.79
2018-11-07T10:30:16.055Z,4.70
2018-11-07T10:32:46.059Z,4.67
2018-11-07T10:35:15.161Z,4.54
2018-11-07T10:37:44.364Z,4.51
2018-11-07T10:40:16.481Z,4.54
2018-11-07T10:42:46.131Z,4.59
2018-11-07T10:45:15.669Z,4.54
2018-11-07T10:47:45.856Z,4.57
2018-11-07T10:50:16.476Z,4.61
2018-11-07T10:52:46.328Z,4.62
2018-11-07T10:55:16.127Z,4.62
2018-11-07T10:57:45.064Z,4.64
2018-11-07T11:00:20.208Z,4.65
2018-11-07T11:02:54.466Z,4.63
2018-11-07T11:05:23.373Z,4.64
2018-11-07T11:07:52.480Z,4.62
2018-11-07T11:10:21.531Z,4.63
2018-11-07T11:12:50.343Z,4.62
2018-11-07T11:15:19.334Z,4.63
2018-11-07T11:17:48.551Z,4.61
2018-11-07T11:20:17.662Z,4.56
2018-11-07T11:22:47.766Z,4.60
2018-11-07T11:25:16.898Z,4.61
2018-11-07T11:27:46.101Z,4.59
2018-11-07T11:30:15.453Z,4.59
2018-11-07T11:32:44.513Z,4.58
2018-11-07T11:35:13.844Z,4.58
2018-11-07T11:37:42.759Z,4.59
2018-11-07T11:40:13.650Z,4.60
2018-11-07T11:42:43.510Z,4.61
2018-11-07T11:45:13.770Z,4.62
2018-11-07T11:47:43.419Z,4.64
2018-11-07T11:50:15.243Z,4.69
2018-11-07T11:52:45.348Z,4.68
2018-11-07T11:55:14.329Z,4.64
2018-11-07T11:57:43.654Z,4.64
2018-11-07T12:00:14.955Z,4.62
2018-11-07T12:02:44.126Z,4.61
2018-11-07T12:05:13.911Z,4.59
2018-11-07T12:07:43.190Z,4.55
2018-11-07T12:10:17.633Z,4.54
2018-11-07T12:12:48.711Z,4.57
2018-11-07T12:15:18.879Z,4.56
2018-11-07T12:17:47.756Z,4.56
2018-11-07T12:20:16.770Z,4.57
2018-11-07T12:22:45.563Z,4.56
2018-11-07T12:25:15.370Z,4.57
2018-11-07T12:27:44.620Z,4.56
2018-11-07T12:30:18.118Z,4.56
2018-11-07T12:32:48.531Z,4.55
2018-11-07T12:35:17.932Z,4.53
2018-11-07T12:37:46.708Z,4.48
2018-11-07T12:40:16.176Z,4.46
2018-11-07T12:42:45.334Z,4.48
2018-11-07T12:45:15.796Z,4.49
2018-11-07T12:47:44.843Z,4.50
2018-11-07T12:50:16.085Z,4.50
2018-11-07T12:52:45.941Z,4.51
2018-11-07T12:55:15.151Z,4.45
2018-11-07T12:57:43.966Z,4.44
2018-11-07T13:00:15.579Z,4.44
2018-11-07T13:02:44.453Z,4.44
2018-11-07T13:05:14.776Z,4.42
2018-11-07T13:07:44.501Z,4.43
2018-11-07T13:10:15.770Z,4.44
2018-11-07T13:12:45.425Z,4.42
2018-11-07T13:15:15.025Z,4.39
2018-11-07T13:18:46.947Z,4.40
2018-11-07T13:21:16.078Z,4.41
2018-11-07T13:23:45.221Z,4.40
2018-11-07T13:26:13.882Z,4.39
2018-11-07T13:28:42.977Z,4.39
2018-11-07T13:31:11.904Z,4.33
2018-11-07T13:33:40.757Z,4.36
2018-11-07T13:36:09.847Z,4.36
2018-11-07T13:38:38.840Z,4.37
2018-11-07T13:41:07.603Z,4.38
2018-11-07T13:43:36.378Z,4.39
2018-11-07T13:46:06.067Z,4.38
2018-11-07T13:48:34.964Z,4.37
2018-11-07T13:51:03.781Z,4.35
2018-11-07T13:53:32.536Z,4.36
2018-11-07T13:56:01.601Z,4.31
2018-11-07T13:58:30.429Z,4.31
2018-11-07T14:00:59.413Z,4.30
2018-11-07T14:03:28.315Z,4.31
2018-11-07T14:05:57.411Z,4.30
2018-11-07T14:08:26.219Z,4.28
2018-11-07T14:10:55.000Z,4.27
2018-11-07T14:13:23.996Z,4.26
2018-11-07T14:15:53.001Z,4.23
2018-11-07T14:18:21.830Z,4.20
2018-11-07T14:20:50.760Z,4.16
2018-11-07T14:23:19.747Z,4.16
2018-11-07T14:25:48.740Z,4.12
2018-11-07T14:28:18.265Z,4.10
2018-11-07T14:30:47.211Z,4.10
2018-11-07T14:33:16.067Z,4.10
2018-11-07T14:35:45.037Z,4.07
2018-11-07T14:38:14.325Z,4.07
2018-11-07T14:40:43.253Z,4.06
2018-11-07T14:43:12.129Z,4.06
2018-11-07T14:45:40.936Z,4.00
2018-11-07T14:48:09.725Z,3.98
2018-11-07T14:50:38.907Z,3.99
2018-11-07T14:53:07.647Z,4.00
2018-11-07T14:55:36.977Z,3.99
2018-11-07T14:58:05.836Z,3.99
2018-11-07T15:00:34.649Z,3.97
2018-11-07T15:03:03.457Z,3.98
2018-11-07T15:05:32.312Z,3.99
2018-11-07T15:08:01.114Z,3.99
2018-11-07T15:10:30.064Z,3.95
2018-11-07T15:12:58.795Z,3.96
2018-11-07T15:15:27.527Z,3.97
2018-11-07T15:17:56.368Z,3.94
2018-11-07T15:20:25.185Z,3.95
2018-11-07T15:23:08.259Z,3.96
2018-11-07T15:25:37.024Z,3.95
2018-11-07T15:28:05.745Z,3.91
2018-11-07T15:30:35.664Z,3.88
2018-11-07T15:33:04.570Z,3.84
2018-11-07T15:35:33.530Z,3.84
2018-11-07T15:38:03.024Z,3.86
2018-11-07T15:40:32.004Z,3.86
2018-11-07T15:43:01.146Z,3.87
2018-11-07T15:45:29.929Z,3.89
2018-11-07T15:47:58.723Z,3.86
2018-11-07T15:50:32.843Z,3.88
2018-11-07T15:53:01.929Z,3.86
2018-11-07T15:55:31.021Z,3.84
2018-11-07T15:57:59.728Z,3.83
2018-11-07T16:00:28.510Z,3.81
2018-11-07T16:02:57.283Z,3.79
2018-11-07T16:05:26.066Z,3.76
2018-11-07T16:07:54.870Z,3.78
2018-11-07T16:10:24.538Z,3.77
2018-11-07T16:12:53.358Z,3.76
2018-11-07T16:15:22.277Z,3.80
2018-11-07T16:17:51.033Z,3.80
2018-11-07T16:20:20.973Z,3.80
2018-11-07T16:22:50.225Z,3.78
2018-11-07T16:25:19.044Z,3.78
2018-11-07T16:27:47.830Z,3.77
2018-11-07T16:30:18.165Z,3.75
2018-11-07T16:32:47.052Z,3.76
2018-11-07T16:35:16.227Z,3.77
2018-11-07T16:37:45.429Z,3.76
2018-11-07T16:40:15.541Z,3.74
2018-11-07T16:42:44.850Z,3.70
2018-11-07T16:45:14.273Z,3.67
2018-11-07T16:47:43.555Z,3.63
2018-11-07T16:50:13.477Z,3.61
2018-11-07T16:52:42.419Z,3.63
2018-11-07T16:55:11.294Z,3.58
2018-11-07T16:57:40.341Z,3.60
2018-11-07T17:00:13.581Z,3.58
2018-11-07T17:02:43.057Z,3.58
2018-11-07T17:05:12.899Z,3.59
2018-11-07T17:07:41.612Z,3.60
2018-11-07T17:10:11.554Z,3.58
2018-11-07T17:12:40.426Z,3.61
2018-11-07T17:15:09.173Z,3.61
2018-11-07T17:17:38.420Z,3.59
2018-11-07T17:20:08.284Z,3.59
2018-11-07T17:22:37.190Z,3.63
2018-11-07T17:25:07.505Z,3.61
2018-11-07T17:27:37.232Z,3.58
2018-11-07T17:30:07.221Z,3.56
2018-11-07T17:32:36.279Z,3.57
2018-11-07T17:35:05.314Z,3.59
2018-11-07T17:37:34.094Z,3.59
2018-11-07T17:40:02.761Z,3.57
2018-11-07T17:42:31.520Z,3.59
2018-11-07T17:45:00.654Z,3.60
2018-11-07T17:47:29.438Z,3.61
2018-11-07T17:49:58.246Z,3.58
2018-11-07T17:52:27.156Z,3.59
2018-11-07T17:54:56.021Z,3.60
2018-11-07T17:57:24.803Z,3.60
2018-11-07T17:59:53.490Z,3.62
2018-11-07T18:02:22.630Z,3.64
2018-11-07T18:04:51.540Z,3.63
2018-11-07T18:07:20.261Z,3.63
2018-11-07T18:09:49.144Z,3.63
2018-11-07T18:12:18.027Z,3.64
2018-11-07T18:14:46.947Z,3.63
2018-11-07T18:17:15.801Z,3.63
2018-11-07T18:19:45.052Z,3.59
2018-11-07T18:22:13.769Z,3.55
2018-11-07T18:24:43.431Z,3.49
2018-11-07T18:27:12.264Z,3.48
2018-11-07T18:29:41.050Z,3.42
2018-11-07T18:32:10.761Z,3.42
2018-11-07T18:34:39.714Z,3.42
2018-11-07T18:37:09.045Z,3.41
2018-11-07T18:39:38.598Z,3.42
2018-11-07T18:42:07.484Z,3.42
2018-11-07T18:44:36.535Z,3.43
2018-11-07T18:47:05.934Z,3.41
2018-11-07T18:49:35.088Z,3.33
2018-11-07T18:52:04.076Z,3.25
2018-11-07T18:54:33.067Z,3.26
2018-11-07T18:57:01.767Z,3.27
2018-11-07T18:59:30.542Z,3.31
2018-11-07T19:01:59.501Z,3.29
2018-11-07T19:04:28.436Z,3.26
2018-11-07T19:06:57.489Z,3.26
2018-11-07T19:09:26.550Z,3.27
2018-11-07T19:11:55.494Z,3.25
2018-11-07T19:14:24.494Z,3.20
2018-11-07T19:16:53.487Z,3.16
2018-11-07T19:19:22.694Z,3.16
2018-11-07T19:21:51.547Z,3.15
2018-11-07T19:24:20.510Z,3.12
2018-11-07T19:26:49.487Z,3.09
2018-11-07T19:29:18.405Z,3.07
2018-11-07T19:31:48.306Z,3.10
2018-11-07T19:34:17.938Z,3.10
2018-11-07T19:36:46.882Z,3.11
2018-11-07T19:39:15.792Z,3.08
2018-11-07T19:41:44.528Z,3.05
2018-11-07T19:44:13.339Z,3.03
2018-11-07T19:46:42.165Z,3.02
2018-11-07T19:49:11.069Z,3.03
2018-11-07T19:51:39.929Z,2.99
2018-11-07T19:54:08.765Z,2.97
2018-11-07T19:56:37.716Z,2.91
2018-11-07T19:59:06.923Z,2.91
2018-11-07T20:01:36.159Z,2.89
2018-11-07T20:04:05.478Z,2.87
2018-11-07T20:06:34.915Z,2.87
2018-11-07T20:09:05.113Z,2.90
2018-11-07T20:11:34.267Z,2.89
2018-11-07T20:14:03.499Z,2.82
2018-11-07T20:16:32.977Z,2.83
2018-11-07T20:19:02.229Z,2.83
2018-11-07T20:21:31.731Z,2.83
2018-11-07T20:24:01.195Z,2.81
2018-11-07T20:26:30.298Z,2.83
2018-11-07T20:28:59.373Z,2.85
2018-11-07T20:31:28.589Z,2.78
2018-11-07T20:33:58.753Z,2.81
2018-11-07T20:36:27.755Z,2.81
2018-11-07T20:38:56.772Z,2.76
2018-11-07T20:41:25.931Z,2.73
2018-11-07T20:43:55.222Z,1.88
2018-11-07T20:46:24.079Z,2.71
2018-11-07T20:48:53.366Z,2.71
2018-11-07T20:51:22.213Z,2.72
2018-11-07T20:53:51.357Z,2.72
2018-11-07T20:56:20.384Z,2.77
2018-11-07T20:58:49.261Z,2.78
2018-11-07T21:01:18.423Z,2.77
2018-11-07T21:03:47.737Z,2.74
2018-11-07T21:06:16.774Z,2.70
2018-11-07T21:08:45.505Z,2.68
2018-11-07T21:11:14.611Z,2.68
2018-11-07T21:13:43.946Z,2.67
2018-11-07T21:16:13.184Z,2.59
2018-11-07T21:18:42.377Z,2.57
2018-11-07T21:21:11.289Z,2.56
2018-11-07T21:23:40.515Z,2.52
2018-11-07T21:26:09.344Z,2.45
2018-11-07T21:28:38.328Z,2.46
2018-11-07T21:31:07.545Z,2.44
2018-11-07T21:33:36.593Z,2.41
2018-11-07T21:36:05.781Z,2.42
2018-11-07T21:38:35.095Z,2.43
2018-11-07T21:41:04.203Z,2.41
2018-11-07T21:43:33.071Z,2.44
2018-11-07T21:46:02.235Z,2.43
2018-11-07T21:48:31.411Z,2.43
2018-11-07T21:51:00.344Z,2.41
2018-11-07T21:53:29.346Z,2.30
2018-11-07T21:55:58.369Z,2.21
2018-11-07T21:58:27.284Z,2.22
2018-11-07T22:00:56.614Z,2.25
2018-11-07T22:03:25.680Z,2.29
2018-11-07T22:05:54.516Z,2.32
2018-11-07T22:08:23.876Z,2.29
2018-11-07T22:10:52.667Z,2.27
2018-11-07T22:13:21.949Z,2.24
2018-11-07T22:15:50.609Z,2.22
2018-11-07T22:18:19.664Z,2.23
2018-11-07T22:20:48.744Z,2.24
2018-11-07T22:23:17.821Z,2.24
2018-11-07T22:25:46.728Z,2.24
2018-11-07T22:28:15.776Z,2.24
2018-11-07T22:30:44.775Z,2.22
2018-11-07T22:33:13.468Z,2.17
2018-11-07T22:35:42.608Z,2.12
2018-11-07T22:38:11.807Z,2.16
2018-11-07T22:40:40.940Z,2.15
2018-11-07T22:43:09.870Z,2.16
2018-11-07T22:45:39.075Z,2.20
2018-11-07T22:48:08.033Z,2.25
2018-11-07T22:50:37.101Z,2.24
2018-11-07T22:53:06.011Z,2.18
2018-11-07T22:55:34.975Z,2.20
2018-11-07T22:58:04.001Z,2.20
2018-11-07T23:00:38.355Z,2.18
2018-11-07T23:03:07.125Z,2.09
2018-11-07T23:05:35.987Z,2.02
2018-11-07T23:08:05.156Z,2.06
2018-11-07T23:10:34.168Z,2.11
2018-11-07T23:13:02.992Z,2.14
2018-11-07T23:15:37.272Z,2.17
2018-11-07T23:18:06.816Z,2.16
2018-11-07T23:20:35.796Z,2.13
2018-11-07T23:23:05.066Z,2.08
2018-11-07T23:25:33.934Z,2.07
2018-11-07T23:28:02.740Z,2.10
2018-11-07T23:30:31.774Z,2.02
2018-11-07T23:33:00.952Z,1.94
2018-11-07T23:35:30.268Z,1.98
2018-11-07T23:37:59.042Z,1.99
2018-11-07T23:40:27.768Z,2.03
2018-11-07T23:42:56.832Z,2.05
2018-11-07T23:45:25.855Z,2.08
2018-11-07T23:47:54.760Z,2.08
2018-11-07T23:50:23.885Z,2.10
2018-11-07T23:52:53.622Z,2.07
2018-11-07T23:55:23.774Z,2.09
2018-11-07T23:57:53.380Z,2.09
